Aerial Acres, CA

8:46 PM PDT on October 20, 2014 (GMT -0700)
Edwards Air Force Base | Change Station
CLOSE
Current Station
Airport
Location: Edwards AFB,
Elevation: 2313 ft
Nearby Weather Stations

Elev 2313 ft 34.91 °N, 117.88 °W | Updated 48 minutes ago

Partly Cloudy
Partly Cloudy
69 °F
Feels Like 69 °F
N
7
Wind Variable Wind from WSW

Today
High -- | Low -- °F
--% Chance of Precip.
Yesterday
High -- | Low -- °F
Precip. -- in
7:01 AM 6:10 PM
Waning Crescent, 7% visible
Pressure 29.87 in
Visibility 50.0 miles
Clouds Few 18000 ft
Mostly Cloudy 25000 ft
Dew Point 38 °F
Humidity 32%
Rainfall 0.00 in
Snow Depth Not available.
UV 0 out of 12
Pollen 4.50 out of 12
Ozone Good
Flu Activity Sporadic
METAR KEDW 210258Z 25006KT 50SM FEW180 BKN250 21/04 A2990 RMK AO2A SLP113 T02070036

More Conditions Fewer Conditions

Pressure 29.87 in
Visibility 50.0 miles
Clouds Few 18000 ft
Mostly Cloudy 25000 ft
Dew Point 38 °F
Humidity 32%
Rainfall 0.00 in
Snow Depth Not available.
UV 0 out of 12
Pollen 4.50 out of 12
Ozone Good
Flu Activity Sporadic
METAR KEDW 210258Z 25006KT 50SM FEW180 BKN250 21/04 A2990 RMK AO2A SLP113 T02070036

More Conditions Fewer Conditions

10-Day Weather Forecast

Almanac

Astronomy

Oct. 20, 2014 Rise Set
Actual Time 7:01 AM PDT 6:10 PM PDT
Civil Twilight 6:36 AM PDT 6:36 PM PDT
Nautical Twilight 6:06 AM PDT 7:05 PM PDT
Astronomical Twilight 5:37 AM PDT 7:34 PM PDT
Moon 4:01 AM PDT (10/20) 4:29 PM PDT (10/20)
Length of Visible Light 11h 59m
Length of Day
11h 08m
Tomorrow will be 2m 3s shorter.
Waning Crescent, 7% of the Moon is Illuminated
Today
Waning Crescent
Oct 23
New
Oct 30
First Quarter
Nov 6
Full
Nov 14
Last Quarter

Today's Extremes

State Highs State Lows

Community

WunderPhotos

Upload Photos

1,763,594 photos uploaded!

Nearby

Air Quality

  Air Quality AQ Index Pollutant
Yesterday Good
OZONE
Current Good
OZONE
Tuesday Good
PM10
Tuesday Moderate
OZONE
Tuesday Good
CO
Tuesday Good
NO2

Snow Depth

Station Depth Elevation
Virginia Lakes Ridge 0 in 9200 ft
Leavitt Lake 1 in 9400 ft
Leavitt Meadows 1 in 7200 ft
Sonora Pass 0 in 8800 ft
Summit Meadow 1 in 9122 ft

Earthquake Activity

City Distance Mag. Time & Date
Lone Pine, California 91 miles 2.6 5:26 AM PDT
2014-10-19
Minimum magnitude displayed is 2.5.

Coastal Water Temperatures

Place Temperature
No Stations Reporting

Nearby Weather Stations